ADDS METAR Data INFO
IDs: Format: Raw Decoded Include TAF

Data at: 1527 UTC 18 Jun 2018

KSDM 181453Z COR VRB04KT 10SM BKN034 18/09 A3001 RMK AO2 SLP159 T01830094 53014
KSDM 181353Z AUTO 00000KT 10SM CLR 16/09 A2999 RMK AO2 SLP154 T01610089
KSDM 181253Z AUTO 00000KT 10SM FEW034 17/09 A2998 RMK AO2 SLP148 T01670089
KSDM 181153Z AUTO 00000KT 10SM OVC034 17/09 A2997 RMK AO2 SLP145 T01670089 10167 20161 55002
KSDM 181053Z AUTO 00000KT 10SM OVC033 17/11 A2996 RMK AO2 SLP142 T01670111
KSDM 180953Z AUTO 00000KT 6SM HZ OVC030 17/12 A2996 RMK AO2 SLP143 T01670117
KSDM 180853Z AUTO 00000KT 10SM OVC024 17/12 A2997 RMK AO2 SLP146 T01670122 58007
KSDM 180753Z AUTO 00000KT 10SM OVC024 17/12 A2998 RMK AO2 SLP149 T01670122 402110150
KSDM 180653Z AUTO 00000KT 10SM OVC026 17/12 A2999 RMK AO2 SLP153 T01670122
KSDM 180553Z AUTO 00000KT 10SM BKN015 OVC027 16/12 A2999 RMK AO2 SLP154 T01610122 10194 20150 52008
KSDM 180509Z AUTO 00000KT 10SM BKN015 16/13 A2999 RMK AO2 T01560128
KSDM 180453Z AUTO 00000KT 10SM FEW014 15/12 A2999 RMK AO2 SLP152 T01500122
KSDM 180353Z AUTO 29005KT 10SM CLR 16/12 A2998 RMK AO2 SLP148 T01560117
KSDM 180253Z 28005KT 10SM CLR 17/12 A2997 RMK AO2 SLP146 T01670117 56001
KSDM 180153Z 31007KT 10SM SCT029 18/11 A2997 RMK AO2 SLP146 T01780106
KSDM 180053Z 25007KT 220V280 10SM SCT035 19/11 A2996 RMK AO2 SLP144 T01890106
KSDM 172353Z COR 26009KT 10SM BKN035 19/10 A2997 RMK AO2 SLP147 60000 T01890100 10211 20178 56000
KSDM 172253Z 26010G16KT 10SM BKN033 20/11 A2997 RMK AO2 SLP147 T02000106
KSDM 172153Z VRB06KT 10SM SCT034 20/11 A2997 RMK AO2 RAB2055E14B46E52 SLP144 P0000 T02000106
KSDM 172053Z 26008KT 10SM OVC034 20/11 A2997 RMK AO2 RAB1955E04 SLP147 P0000 60000 T02000106 53001
KSDM 171953Z 26010KT 10SM BKN035 20/11 A2997 RMK AO2 SLP144 T02000106
KSDM 171853Z VRB06KT 10SM OVC032 19/11 A2997 RMK AO2 SLP146 T01890106
KSDM 171753Z 25005KT 10SM SCT029 OVC037 18/10 A2997 RMK AO2 SLP146 T01780100 10178 20156 52006
KSDM 171653Z 10SM SCT028 OVC037 18/10 A2996 RMK AO2 SLP143 T01780100
KSDM 171553Z VRB03KT 10SM OVC033 17/10 A2996 RMK AO2 SLP143 T01670100
KSDM 171453Z 25005KT 10SM OVC032 16/11 A2995 RMK AO2 SLP140 T01610106 53016
KSDM 171353Z AUTO 24006KT 10SM OVC031 16/11 A2993 RMK AO2 SLP134 T01560106
KSDM 171334Z AUTO 27006KT 10SM OVC030 16/11 A2993 RMK AO2 T01560106
KSDM 171253Z AUTO 25006KT 10SM OVC028 16/10 A2991 RMK AO2 SLP127 T01560100
KSDM 171153Z AUTO 25005KT 10SM OVC027 16/10 A2991 RMK AO2 SLP124 T01560100 10161 20156 53003
KSDM 171053Z AUTO 26005KT 10SM OVC027 16/11 A2990 RMK AO2 SLP121 T01560106
KSDM 171026Z AUTO 23005KT 10SM OVC028 16/11 A2989 RMK AO2 T01560106
KSDM 170953Z AUTO 26005KT 10SM FEW024 OVC031 16/11 A2990 RMK AO2 SLP120 T01560106
KSDM 170921Z AUTO 28004KT 10SM OVC029 16/11 A2990 RMK AO2 T01560106
KSDM 170853Z AUTO 26005KT 10SM SCT025 OVC033 16/11 A2990 RMK AO2 SLP121 T01560106 58001
KSDM 170849Z AUTO 26006KT 10SM SCT025 OVC033 16/11 A2990 RMK AO2
KSDM 170838Z AUTO 27005KT 10SM BKN025 OVC032 16/11 A2990 RMK AO2 T01610106
KSDM 170753Z AUTO 25005KT 10SM OVC030 16/10 A2990 RMK AO2 SLP122 T01610100 402000156
KSDM 170749Z AUTO 23005KT 10SM OVC030 16/10 A2990 RMK AO2
KSDM 170653Z AUTO 26003KT 10SM OVC027 16/11 A2989 RMK AO2 SLP120 T01610106
KSDM 170610Z AUTO 27003KT 10SM OVC029 16/11 A2990 RMK AO2 T01560106
KSDM 170553Z AUTO 26005KT 10SM OVC030 16/11 A2990 RMK AO2 SLP122 60000 T01560106 10172 20156 51009
KSDM 170542Z AUTO 27004KT 10SM OVC030 16/11 A2990 RMK AO2 T01560106
KSDM 170453Z AUTO VRB03KT 10SM OVC029 16/12 A2990 RMK AO2 SLP120 T01610117
KSDM 170445Z AUTO 26004KT 10SM OVC029 16/12 A2989 RMK AO2 T01610117
KSDM 170420Z AUTO 25005KT 10SM OVC030 16/12 A2989 RMK AO2 T01610117
KSDM 170353Z AUTO 26006KT 10SM OVC029 16/12 A2988 RMK AO2 SLP115 T01610117